Check out our new PWSWeather beta!
PWSweather.com
Personal Weather Stations
Station Observations

ChardChardGB

Lat: 50.877408, Lon: -2.94964741

Elevation: 341

Station Type: WS3083

http://www.merriott-astro.co.uk/weather/index.htm

Latest ConditionsUpdated 6:40:00 PM GMT Monday, Feb 24, 2020
Currently Today's Max Today's Min Today's Average
Temperature 48.4°F9.1°C 53.8°F12.1°C 44.4°F6.9°C 50.8°F10.4°C
Dew Point 40.5°F4.7°C 49.0°F9.4°C 40.5°F4.7°C 45.6°F7.6°C
Winds 5.7 mph WNW9.2 kmh WNW 8.4 mph -13.5 kmh - - 5.5 mph 8.9 kmh
Wind Gusts 9.8 mph15.8 kmh 25.1 mph40.4 kmh - -
Humidity 74% 92% 71% 82%
Pressure 29.45 in997.3 mb 29.84 in1010.5 mb 29.41 in995.9 mb -
Precipitation - 0.25 in6.4 mm - -
Hour Temp Dew Point Humidity Winds Wind Gusts Pressure Precip Precip Rate Daily Precip Total
06:40 PM 48.4°F9.1°C 40.5°F4.7°C 74% 5.7 mph WNW9.2 kmh WNW 9.8 mph15.8 kmh 29.45 in997.3 mb 0.00 in0.0 mm 0.00 in0.0 mm 0.25 in6.4 mm
06:30 PM 48.7°F9.3°C 40.8°F4.9°C 74% 5.5 mph NW8.9 kmh NW 10.7 mph17.2 kmh 29.45 in997.3 mb 0.00 in0.0 mm 0.00 in0.0 mm 0.25 in6.4 mm
06:20 PM 48.9°F9.4°C 41.0°F5.0°C 74% 6.1 mph WNW9.8 kmh WNW 17.4 mph28.0 kmh 29.45 in997.3 mb 0.00 in0.0 mm 0.00 in0.0 mm 0.25 in6.4 mm
06:10 PM 48.9°F9.4°C 41.0°F5.0°C 74% 5.0 mph W8.0 kmh W 10.7 mph17.2 kmh 29.45 in997.3 mb 0.00 in0.0 mm 0.00 in0.0 mm 0.25 in6.4 mm
06:00 PM 49.1°F9.5°C 40.8°F4.9°C 73% 4.4 mph WNW7.1 kmh WNW 8.3 mph13.4 kmh 29.45 in997.3 mb 0.00 in0.0 mm 0.00 in0.0 mm 0.25 in6.4 mm
05:50 PM 49.5°F9.7°C 40.8°F4.9°C 72% 6.9 mph W11.1 kmh W 15.9 mph25.6 kmh 29.45 in997.3 mb 0.00 in0.0 mm 0.00 in0.0 mm 0.25 in6.4 mm
05:40 PM 49.8°F9.9°C 40.8°F4.9°C 71% 8.1 mph WNW13.0 kmh WNW 15.9 mph25.6 kmh 29.44 in997.0 mb 0.00 in0.0 mm 0.00 in0.0 mm 0.25 in6.4 mm
05:30 PM 50.7°F10.4°C 42.0°F5.6°C 72% 5.0 mph NW8.0 kmh NW 12.1 mph19.5 kmh 29.44 in997.0 mb 0.00 in0.0 mm 0.00 in0.0 mm 0.25 in6.4 mm
05:20 PM 50.9°F10.5°C 42.2°F5.7°C 72% 5.3 mph W8.5 kmh W 13.6 mph21.9 kmh 29.43 in996.6 mb 0.00 in0.0 mm 0.00 in0.0 mm 0.25 in6.4 mm
05:10 PM 51.1°F10.6°C 42.4°F5.8°C 72% 5.8 mph WNW9.3 kmh WNW 15.9 mph25.6 kmh 29.43 in996.6 mb 0.00 in0.0 mm 0.00 in0.0 mm 0.25 in6.4 mm
05:00 PM 51.4°F10.8°C 42.4°F5.8°C 71% 8.4 mph NW13.5 kmh NW 18.3 mph29.5 kmh 29.43 in996.6 mb 0.01 in0.3 mm 0.00 in0.0 mm 0.25 in6.4 mm
04:50 PM 51.6°F10.9°C 42.9°F6.1°C 72% 5.6 mph NW9.0 kmh NW 10.7 mph17.2 kmh 29.42 in996.3 mb 0.01 in0.3 mm 0.00 in0.0 mm 0.25 in6.4 mm
04:40 PM 52.0°F11.1°C 43.6°F6.4°C 73% 6.4 mph W10.3 kmh W 14.5 mph23.3 kmh 29.42 in996.3 mb 0.01 in0.3 mm 0.00 in0.0 mm 0.25 in6.4 mm
04:30 PM 52.3°F11.3°C 43.6°F6.4°C 72% 7.2 mph SW11.6 kmh SW 25.1 mph40.4 kmh 29.42 in996.3 mb 0.01 in0.3 mm 0.00 in0.0 mm 0.25 in6.4 mm
04:20 PM 52.7°F11.5°C 43.9°F6.6°C 72% 7.6 mph SW12.2 kmh SW 19.0 mph30.6 kmh 29.42 in996.3 mb 0.01 in0.3 mm 0.00 in0.0 mm 0.25 in6.4 mm
04:10 PM 52.9°F11.6°C 44.5°F6.9°C 73% 7.1 mph WSW11.4 kmh WSW 14.5 mph23.3 kmh 29.42 in996.3 mb 0.01 in0.3 mm 0.06 in1.5 mm 0.25 in6.4 mm
04:00 PM 53.2°F11.8°C 44.8°F7.1°C 73% 7.9 mph SW12.7 kmh SW 15.9 mph25.6 kmh 29.41 in995.9 mb 0.00 in0.0 mm 0.00 in0.0 mm 0.24 in6.1 mm
03:50 PM 53.2°F11.8°C 45.5°F7.5°C 75% 6.9 mph SSW11.1 kmh SSW 15.2 mph24.5 kmh 29.42 in996.3 mb 0.00 in0.0 mm 0.00 in0.0 mm 0.24 in6.1 mm
03:40 PM 53.4°F11.9°C 45.7°F7.6°C 75% 6.6 mph SSW10.6 kmh SSW 18.3 mph29.5 kmh 29.41 in995.9 mb 0.00 in0.0 mm 0.00 in0.0 mm 0.24 in6.1 mm
03:30 PM 53.8°F12.1°C 46.1°F7.8°C 75% 7.2 mph WSW11.6 kmh WSW 16.8 mph27.0 kmh 29.42 in996.3 mb 0.00 in0.0 mm 0.00 in0.0 mm 0.24 in6.1 mm
03:20 PM 53.8°F12.1°C 46.7°F8.2°C 77% 7.4 mph WSW11.9 kmh WSW 19.0 mph30.6 kmh 29.42 in996.3 mb 0.00 in0.0 mm 0.00 in0.0 mm 0.24 in6.1 mm
03:10 PM 53.8°F12.1°C 47.8°F8.8°C 80% 7.1 mph WSW11.4 kmh WSW 13.6 mph21.9 kmh 29.41 in995.9 mb 0.00 in0.0 mm 0.00 in0.0 mm 0.24 in6.1 mm
03:00 PM 53.6°F12.0°C 47.9°F8.8°C 81% 5.9 mph SSW9.5 kmh SSW 16.8 mph27.0 kmh 29.41 in995.9 mb 0.00 in0.0 mm 0.00 in0.0 mm 0.24 in6.1 mm
02:50 PM 53.6°F12.0°C 48.2°F9.0°C 82% 6.3 mph SW10.1 kmh SW 16.8 mph27.0 kmh 29.42 in996.3 mb 0.00 in0.0 mm 0.00 in0.0 mm 0.24 in6.1 mm
02:40 PM 53.4°F11.9°C 48.7°F9.3°C 84% 4.0 mph WSW6.4 kmh WSW 9.8 mph15.8 kmh 29.42 in996.3 mb 0.00 in0.0 mm 0.00 in0.0 mm 0.24 in6.1 mm
02:30 PM 53.4°F11.9°C 48.7°F9.3°C 84% 5.5 mph SW8.9 kmh SW 13.0 mph20.9 kmh 29.42 in996.3 mb 0.00 in0.0 mm 0.00 in0.0 mm 0.24 in6.1 mm
02:20 PM 53.2°F11.8°C 48.9°F9.4°C 85% 4.9 mph SW7.9 kmh SW 11.4 mph18.3 kmh 29.41 in995.9 mb 0.01 in0.3 mm 0.00 in0.0 mm 0.24 in6.1 mm
02:10 PM 52.9°F11.6°C 48.8°F9.3°C 86% 5.5 mph SW8.9 kmh SW 15.2 mph24.5 kmh 29.42 in996.3 mb 0.01 in0.3 mm 0.00 in0.0 mm 0.24 in6.1 mm
02:00 PM 52.7°F11.5°C 48.6°F9.2°C 86% 5.7 mph SSW9.2 kmh SSW 9.8 mph15.8 kmh 29.42 in996.3 mb 0.01 in0.3 mm 0.00 in0.0 mm 0.24 in6.1 mm
01:50 PM 52.5°F11.4°C 48.5°F9.2°C 86% 4.5 mph S7.2 kmh S 9.8 mph15.8 kmh 29.42 in996.3 mb 0.01 in0.3 mm 0.00 in0.0 mm 0.24 in6.1 mm
01:40 PM 52.3°F11.3°C 48.3°F9.1°C 86% 5.9 mph SW9.5 kmh SW 17.4 mph28.0 kmh 29.42 in996.3 mb 0.01 in0.3 mm 0.00 in0.0 mm 0.24 in6.1 mm
01:30 PM 52.2°F11.2°C 48.1°F8.9°C 86% 6.5 mph SW10.5 kmh SW 17.4 mph28.0 kmh 29.44 in997.0 mb 0.01 in0.3 mm 0.00 in0.0 mm 0.24 in6.1 mm
01:20 PM 52.2°F11.2°C 48.1°F8.9°C 86% 4.7 mph SW7.6 kmh SW 15.9 mph25.6 kmh 29.44 in997.0 mb 0.01 in0.3 mm 0.00 in0.0 mm 0.22 in5.6 mm
01:10 PM 52.2°F11.2°C 48.1°F8.9°C 86% 5.0 mph SW8.0 kmh SW 15.9 mph25.6 kmh 29.44 in997.0 mb 0.04 in1.0 mm 0.00 in0.0 mm 0.22 in5.6 mm
01:00 PM 51.8°F11.0°C 47.8°F8.8°C 86% 5.7 mph SW9.2 kmh SW 11.4 mph18.3 kmh 29.45 in997.3 mb 0.05 in1.3 mm 0.00 in0.0 mm 0.22 in5.6 mm
12:50 PM 51.8°F11.0°C 47.8°F8.8°C 86% 6.4 mph S10.3 kmh S 16.8 mph27.0 kmh 29.44 in997.0 mb 0.05 in1.3 mm 0.00 in0.0 mm 0.22 in5.6 mm
12:40 PM 52.0°F11.1°C 47.9°F8.8°C 86% 4.2 mph SW6.8 kmh SW 10.7 mph17.2 kmh 29.46 in997.6 mb 0.06 in1.5 mm 0.06 in1.5 mm 0.22 in5.6 mm
12:30 PM 52.0°F11.1°C 47.9°F8.8°C 86% 4.4 mph SSW7.1 kmh SSW 9.2 mph14.8 kmh 29.47 in998.0 mb 0.05 in1.3 mm 0.00 in0.0 mm 0.21 in5.3 mm
12:20 PM 51.8°F11.0°C 47.4°F8.6°C 85% 4.5 mph SW7.2 kmh SW 11.4 mph18.3 kmh 29.47 in998.0 mb 0.05 in1.3 mm 0.00 in0.0 mm 0.20 in5.1 mm
12:10 PM 51.8°F11.0°C 47.4°F8.6°C 85% 3.8 mph SW6.1 kmh SW 9.8 mph15.8 kmh 29.47 in998.0 mb 0.05 in1.3 mm 0.00 in0.0 mm 0.19 in4.8 mm
12:00 PM 51.8°F11.0°C 47.4°F8.6°C 85% 3.7 mph WSW6.0 kmh WSW 8.3 mph13.4 kmh 29.48 in998.3 mb 0.05 in1.3 mm 0.00 in0.0 mm 0.18 in4.6 mm
11:50 AM 51.6°F10.9°C 47.3°F8.5°C 85% 3.7 mph S6.0 kmh S 7.6 mph12.2 kmh 29.48 in998.3 mb 0.06 in1.5 mm 0.06 in1.5 mm 0.18 in4.6 mm
11:40 AM 51.6°F10.9°C 47.3°F8.5°C 85% 5.2 mph SW8.4 kmh SW 10.7 mph17.2 kmh 29.48 in998.3 mb 0.05 in1.3 mm 0.00 in0.0 mm 0.17 in4.3 mm
11:30 AM 51.4°F10.8°C 47.1°F8.4°C 85% 4.5 mph S7.2 kmh S 13.0 mph20.9 kmh 29.48 in998.3 mb 0.05 in1.3 mm 0.06 in1.5 mm 0.17 in4.3 mm
11:20 AM 51.4°F10.8°C 46.8°F8.2°C 84% 4.2 mph SSW6.8 kmh SSW 11.4 mph18.3 kmh 29.48 in998.3 mb 0.04 in1.0 mm 0.00 in0.0 mm 0.15 in3.8 mm
11:10 AM 51.4°F10.8°C 46.8°F8.2°C 84% 4.5 mph SSW7.2 kmh SSW 11.4 mph18.3 kmh 29.48 in998.3 mb 0.04 in1.0 mm 0.12 in3.0 mm 0.14 in3.6 mm
11:00 AM 51.4°F10.8°C 46.5°F8.1°C 83% 5.0 mph S8.0 kmh S 11.4 mph18.3 kmh 29.48 in998.3 mb 0.02 in0.5 mm 0.01 in0.3 mm 0.13 in3.3 mm
10:50 AM 51.4°F10.8°C 46.5°F8.1°C 83% 5.7 mph SW9.2 kmh SW 13.0 mph20.9 kmh 29.50 in999.0 mb 0.01 in0.3 mm 0.00 in0.0 mm 0.12 in3.0 mm
10:40 AM 51.4°F10.8°C 46.1°F7.8°C 82% 5.0 mph SSW8.0 kmh SSW 10.7 mph17.2 kmh 29.49 in998.6 mb 0.02 in0.5 mm 0.00 in0.0 mm 0.12 in3.0 mm
10:30 AM 51.4°F10.8°C 46.1°F7.8°C 82% 6.2 mph S10.0 kmh S 13.6 mph21.9 kmh 29.50 in999.0 mb 0.02 in0.5 mm 0.00 in0.0 mm 0.12 in3.0 mm
10:20 AM 51.6°F10.9°C 46.0°F7.8°C 81% 7.0 mph S11.3 kmh S 15.2 mph24.5 kmh 29.50 in999.0 mb 0.02 in0.5 mm 0.06 in1.5 mm 0.12 in3.0 mm
10:10 AM 51.8°F11.0°C 46.2°F7.9°C 81% 6.2 mph SSW10.0 kmh SSW 13.6 mph21.9 kmh 29.50 in999.0 mb 0.01 in0.3 mm 0.00 in0.0 mm 0.11 in2.8 mm
10:00 AM 51.8°F11.0°C 45.8°F7.7°C 80% 8.4 mph S13.5 kmh S 21.3 mph34.3 kmh 29.50 in999.0 mb 0.01 in0.3 mm 0.00 in0.0 mm 0.11 in2.8 mm
09:50 AM 52.0°F11.1°C 46.0°F7.8°C 80% 5.3 mph S8.5 kmh S 13.0 mph20.9 kmh 29.51 in999.3 mb 0.01 in0.3 mm 0.06 in1.5 mm 0.11 in2.8 mm
09:40 AM 52.0°F11.1°C 45.7°F7.6°C 79% 7.5 mph S12.1 kmh S 17.4 mph28.0 kmh 29.51 in999.3 mb 0.00 in0.0 mm 0.00 in0.0 mm 0.09 in2.3 mm
09:30 AM 51.8°F11.0°C 45.8°F7.7°C 80% 6.4 mph SSW10.3 kmh SSW 13.0 mph20.9 kmh 29.52 in999.7 mb 0.00 in0.0 mm 0.00 in0.0 mm 0.09 in2.3 mm
09:20 AM 51.6°F10.9°C 46.0°F7.8°C 81% 6.2 mph SSW10.0 kmh SSW 13.6 mph21.9 kmh 29.53 in1000.0 mb 0.00 in0.0 mm 0.00 in0.0 mm 0.09 in2.3 mm
09:10 AM 51.4°F10.8°C 46.1°F7.8°C 82% 7.3 mph S11.7 kmh S 15.9 mph25.6 kmh 29.53 in1000.0 mb 0.01 in0.3 mm 0.00 in0.0 mm 0.09 in2.3 mm
09:00 AM 51.3°F10.7°C 46.0°F7.8°C 82% 6.4 mph SSW10.3 kmh SSW 15.2 mph24.5 kmh 29.53 in1000.0 mb 0.01 in0.3 mm 0.00 in0.0 mm 0.09 in2.3 mm
08:50 AM 51.3°F10.7°C 46.0°F7.8°C 82% 7.5 mph SW12.1 kmh SW 17.4 mph28.0 kmh 29.52 in999.7 mb 0.01 in0.3 mm 0.00 in0.0 mm 0.09 in2.3 mm
08:40 AM 51.4°F10.8°C 45.8°F7.7°C 81% 7.6 mph SSW12.2 kmh SSW 18.3 mph29.5 kmh 29.54 in1000.3 mb 0.01 in0.3 mm 0.00 in0.0 mm 0.09 in2.3 mm
08:30 AM 51.4°F10.8°C 45.8°F7.7°C 81% 7.0 mph SW11.3 kmh SW 13.6 mph21.9 kmh 29.53 in1000.0 mb 0.01 in0.3 mm 0.00 in0.0 mm 0.09 in2.3 mm
08:20 AM 51.6°F10.9°C 46.0°F7.8°C 81% 6.2 mph SW10.0 kmh SW 11.4 mph18.3 kmh 29.54 in1000.3 mb 0.01 in0.3 mm 0.06 in1.5 mm 0.09 in2.3 mm
08:10 AM 51.6°F10.9°C 45.7°F7.6°C 80% 7.0 mph S11.3 kmh S 15.9 mph25.6 kmh 29.54 in1000.3 mb 0.00 in0.0 mm 0.00 in0.0 mm 0.08 in2.0 mm
08:00 AM 51.6°F10.9°C 45.7°F7.6°C 80% 7.6 mph SW12.2 kmh SW 20.6 mph33.2 kmh 29.53 in1000.0 mb 0.00 in0.0 mm 0.00 in0.0 mm 0.08 in2.0 mm
07:50 AM 51.8°F11.0°C 45.5°F7.5°C 79% 7.4 mph S11.9 kmh S 16.8 mph27.0 kmh 29.54 in1000.3 mb 0.00 in0.0 mm 0.00 in0.0 mm 0.08 in2.0 mm
07:40 AM 52.0°F11.1°C 45.3°F7.4°C 78% 8.2 mph SW13.2 kmh SW 18.3 mph29.5 kmh 29.55 in1000.7 mb 0.00 in0.0 mm 0.00 in0.0 mm 0.08 in2.0 mm
07:30 AM 51.8°F11.0°C 45.2°F7.3°C 78% 7.2 mph SSW11.6 kmh SSW 15.9 mph25.6 kmh 29.57 in1001.4 mb 0.00 in0.0 mm 0.00 in0.0 mm 0.08 in2.0 mm
07:20 AM 51.8°F11.0°C 44.8°F7.1°C 77% 5.9 mph SW9.5 kmh SW 15.2 mph24.5 kmh 29.56 in1001.0 mb 0.00 in0.0 mm 0.00 in0.0 mm 0.08 in2.0 mm
07:10 AM 51.8°F11.0°C 44.8°F7.1°C 77% 7.1 mph SW11.4 kmh SW 15.2 mph24.5 kmh 29.58 in1001.7 mb 0.00 in0.0 mm 0.00 in0.0 mm 0.08 in2.0 mm
07:00 AM 51.8°F11.0°C 44.8°F7.1°C 77% 7.4 mph SSW11.9 kmh SSW 20.6 mph33.2 kmh 29.58 in1001.7 mb 0.00 in0.0 mm 0.00 in0.0 mm 0.08 in2.0 mm
06:50 AM 51.6°F10.9°C 45.0°F7.2°C 78% 7.4 mph SW11.9 kmh SW 20.6 mph33.2 kmh 29.58 in1001.7 mb 0.00 in0.0 mm 0.00 in0.0 mm 0.08 in2.0 mm
06:40 AM 51.6°F10.9°C 45.0°F7.2°C 78% 6.9 mph SW11.1 kmh SW 15.9 mph25.6 kmh 29.57 in1001.4 mb 0.00 in0.0 mm 0.00 in0.0 mm 0.08 in2.0 mm
06:30 AM 51.6°F10.9°C 45.0°F7.2°C 78% 5.7 mph S9.2 kmh S 11.4 mph18.3 kmh 29.59 in1002.0 mb 0.00 in0.0 mm 0.00 in0.0 mm 0.08 in2.0 mm
06:20 AM 51.6°F10.9°C 45.3°F7.4°C 79% 6.9 mph S11.1 kmh S 18.3 mph29.5 kmh 29.60 in1002.4 mb 0.00 in0.0 mm 0.00 in0.0 mm 0.08 in2.0 mm
06:10 AM 51.6°F10.9°C 45.3°F7.4°C 79% 6.8 mph SSW10.9 kmh SSW 15.9 mph25.6 kmh 29.60 in1002.4 mb 0.00 in0.0 mm 0.00 in0.0 mm 0.08 in2.0 mm
06:00 AM 51.6°F10.9°C 45.0°F7.2°C 78% 6.5 mph SSW10.5 kmh SSW 17.4 mph28.0 kmh 29.61 in1002.7 mb 0.00 in0.0 mm 0.00 in0.0 mm 0.08 in2.0 mm
05:50 AM 51.8°F11.0°C 45.2°F7.3°C 78% 5.3 mph SSW8.5 kmh SSW 13.6 mph21.9 kmh 29.62 in1003.0 mb 0.00 in0.0 mm 0.00 in0.0 mm 0.08 in2.0 mm
05:40 AM 51.8°F11.0°C 45.5°F7.5°C 79% 6.1 mph SSW9.8 kmh SSW 15.2 mph24.5 kmh 29.63 in1003.4 mb 0.00 in0.0 mm 0.00 in0.0 mm 0.08 in2.0 mm
05:30 AM 51.8°F11.0°C 45.8°F7.7°C 80% 5.5 mph SW8.9 kmh SW 10.7 mph17.2 kmh 29.64 in1003.7 mb 0.00 in0.0 mm 0.00 in0.0 mm 0.08 in2.0 mm
05:20 AM 51.8°F11.0°C 46.2°F7.9°C 81% 5.6 mph SSW9.0 kmh SSW 10.7 mph17.2 kmh 29.64 in1003.7 mb 0.00 in0.0 mm 0.00 in0.0 mm 0.08 in2.0 mm
05:10 AM 51.8°F11.0°C 46.8°F8.2°C 83% 6.2 mph SW10.0 kmh SW 12.1 mph19.5 kmh 29.65 in1004.1 mb 0.00 in0.0 mm 0.00 in0.0 mm 0.08 in2.0 mm
05:00 AM 51.6°F10.9°C 47.9°F8.8°C 87% 5.6 mph SSW9.0 kmh SSW 15.9 mph25.6 kmh 29.65 in1004.1 mb 0.00 in0.0 mm 0.00 in0.0 mm 0.08 in2.0 mm
04:50 AM 51.6°F10.9°C 48.8°F9.3°C 90% 6.3 mph SW10.1 kmh SW 15.9 mph25.6 kmh 29.65 in1004.1 mb 0.00 in0.0 mm 0.00 in0.0 mm 0.08 in2.0 mm
04:40 AM 51.4°F10.8°C 48.9°F9.4°C 91% 6.2 mph SSW10.0 kmh SSW 12.1 mph19.5 kmh 29.65 in1004.1 mb 0.00 in0.0 mm 0.00 in0.0 mm 0.08 in2.0 mm
04:30 AM 51.3°F10.7°C 49.0°F9.4°C 92% 5.5 mph SW8.9 kmh SW 11.4 mph18.3 kmh 29.65 in1004.1 mb 0.00 in0.0 mm 0.00 in0.0 mm 0.08 in2.0 mm
04:20 AM 51.3°F10.7°C 49.0°F9.4°C 92% 5.6 mph SSW9.0 kmh SSW 11.4 mph18.3 kmh 29.67 in1004.7 mb 0.00 in0.0 mm 0.00 in0.0 mm 0.08 in2.0 mm
04:10 AM 51.3°F10.7°C 49.0°F9.4°C 92% 6.2 mph S10.0 kmh S 12.1 mph19.5 kmh 29.67 in1004.7 mb 0.00 in0.0 mm 0.00 in0.0 mm 0.08 in2.0 mm
04:00 AM 51.1°F10.6°C 48.8°F9.3°C 92% 6.3 mph SSW10.1 kmh SSW 13.0 mph20.9 kmh 29.68 in1005.1 mb 0.00 in0.0 mm 0.00 in0.0 mm 0.08 in2.0 mm
03:50 AM 50.7°F10.4°C 48.2°F9.0°C 91% 6.0 mph S9.7 kmh S 13.6 mph21.9 kmh 29.68 in1005.1 mb 0.00 in0.0 mm 0.00 in0.0 mm 0.08 in2.0 mm
03:40 AM 50.5°F10.3°C 48.0°F8.9°C 91% 5.0 mph SSW8.0 kmh SSW 9.8 mph15.8 kmh 29.68 in1005.1 mb 0.00 in0.0 mm 0.00 in0.0 mm 0.08 in2.0 mm
03:30 AM 50.4°F10.2°C 47.8°F8.8°C 91% 5.5 mph S8.9 kmh S 11.4 mph18.3 kmh 29.69 in1005.4 mb 0.01 in0.3 mm 0.00 in0.0 mm 0.08 in2.0 mm
03:20 AM 50.0°F10.0°C 47.5°F8.6°C 91% 5.5 mph S8.9 kmh S 11.4 mph18.3 kmh 29.70 in1005.8 mb 0.01 in0.3 mm 0.00 in0.0 mm 0.08 in2.0 mm
03:10 AM 49.6°F9.8°C 47.1°F8.4°C 91% 5.5 mph S8.9 kmh S 9.8 mph15.8 kmh 29.71 in1006.1 mb 0.02 in0.5 mm 0.00 in0.0 mm 0.08 in2.0 mm
03:00 AM 49.3°F9.6°C 46.8°F8.2°C 91% 5.2 mph S8.4 kmh S 9.2 mph14.8 kmh 29.71 in1006.1 mb 0.04 in1.0 mm 0.00 in0.0 mm 0.08 in2.0 mm
02:50 AM 48.9°F9.4°C 46.1°F7.8°C 90% 4.1 mph SW6.6 kmh SW 7.6 mph12.2 kmh 29.72 in1006.4 mb 0.04 in1.0 mm 0.00 in0.0 mm 0.08 in2.0 mm
02:40 AM 48.6°F9.2°C 45.8°F7.7°C 90% 4.5 mph S7.2 kmh S 9.2 mph14.8 kmh 29.73 in1006.8 mb 0.05 in1.3 mm 0.00 in0.0 mm 0.08 in2.0 mm
02:30 AM 48.0°F8.9°C 45.2°F7.3°C 90% 3.3 mph SW5.3 kmh SW 9.2 mph14.8 kmh 29.74 in1007.1 mb 0.05 in1.3 mm 0.00 in0.0 mm 0.07 in1.8 mm
02:20 AM 47.8°F8.8°C 45.1°F7.3°C 90% 4.5 mph SSW7.2 kmh SSW 9.2 mph14.8 kmh 29.75 in1007.5 mb 0.05 in1.3 mm 0.06 in1.5 mm 0.07 in1.8 mm
02:10 AM 47.5°F8.6°C 44.4°F6.9°C 89% 3.8 mph S6.1 kmh S 9.2 mph14.8 kmh 29.75 in1007.5 mb 0.04 in1.0 mm 0.00 in0.0 mm 0.06 in1.5 mm
02:00 AM 47.1°F8.4°C 44.0°F6.7°C 89% 2.0 mph SSW3.2 kmh SSW 5.4 mph8.7 kmh 29.77 in1008.1 mb 0.04 in1.0 mm 0.00 in0.0 mm 0.05 in1.3 mm
01:50 AM 46.9°F8.3°C 43.9°F6.6°C 89% 4.0 mph S6.4 kmh S 9.2 mph14.8 kmh 29.77 in1008.1 mb 0.04 in1.0 mm 0.12 in3.0 mm 0.05 in1.3 mm
01:40 AM 46.8°F8.2°C 43.4°F6.3°C 88% 3.3 mph SSW5.3 kmh SSW 6.9 mph11.1 kmh 29.78 in1008.5 mb 0.02 in0.5 mm 0.06 in1.5 mm 0.04 in1.0 mm
01:30 AM 46.6°F8.1°C 43.2°F6.2°C 88% 3.2 mph S5.1 kmh S 7.6 mph12.2 kmh 29.78 in1008.5 mb 0.01 in0.3 mm 0.00 in0.0 mm 0.02 in0.5 mm
01:20 AM 46.4°F8.0°C 42.7°F5.9°C 87% 3.0 mph S4.8 kmh S 6.0 mph9.7 kmh 29.80 in1009.1 mb 0.02 in0.5 mm 0.00 in0.0 mm 0.02 in0.5 mm
01:10 AM 46.0°F7.8°C 42.4°F5.8°C 87% 2.9 mph SSW4.7 kmh SSW 6.0 mph9.7 kmh 29.80 in1009.1 mb 0.02 in0.5 mm 0.06 in1.5 mm 0.02 in0.5 mm
01:00 AM 45.7°F7.6°C 41.7°F5.4°C 86% 2.5 mph S4.0 kmh S 5.4 mph8.7 kmh 29.80 in1009.1 mb 0.01 in0.3 mm 0.00 in0.0 mm 0.01 in0.3 mm
12:50 AM 45.3°F7.4°C 42.6°F5.9°C 90% 2.4 mph S3.9 kmh S 6.0 mph9.7 kmh 29.79 in1008.8 mb 0.01 in0.3 mm 0.00 in0.0 mm 0.01 in0.3 mm
12:40 AM 45.1°F7.3°C 42.4°F5.8°C 90% 2.1 mph S3.4 kmh S 5.4 mph8.7 kmh 29.81 in1009.5 mb 0.01 in0.3 mm 0.00 in0.0 mm 0.01 in0.3 mm
12:30 AM 45.0°F7.2°C 42.2°F5.7°C 90% 1.3 mph SE2.1 kmh SE 3.8 mph6.1 kmh 29.82 in1009.8 mb 0.01 in0.3 mm 0.06 in1.5 mm 0.01 in0.3 mm
12:20 AM 44.8°F7.1°C 42.0°F5.6°C 90% 1.6 mph S2.6 kmh S 5.4 mph8.7 kmh 29.83 in1010.2 mb 0.00 in0.0 mm 0.00 in0.0 mm 0.01 in0.3 mm
12:10 AM 44.6°F7.0°C 41.6°F5.3°C 89% 0.9 mph S1.4 kmh S 3.1 mph5.0 kmh 29.84 in1010.5 mb 0.01 in0.3 mm 0.00 in0.0 mm 0.01 in0.3 mm
12:00 AM 44.4°F6.9°C 41.4°F5.2°C 89% 0.5 mph SW0.8 kmh SW 2.2 mph3.5 kmh 29.84 in1010.5 mb 0.01 in0.3 mm 0.00 in0.0 mm 0.01 in0.3 mm